createdAt,value
2019-04-03T00:01:04.889Z,15.70
2019-04-03T00:03:34.206Z,15.10
2019-04-03T00:06:03.721Z,15.03
2019-04-03T00:08:36.135Z,18.13
2019-04-03T00:11:03.563Z,18.03
2019-04-03T00:13:31.842Z,17.43
2019-04-03T00:16:00.139Z,16.20
2019-04-03T00:18:28.447Z,17.10
2019-04-03T00:20:56.836Z,15.00
2019-04-03T00:23:25.169Z,20.70
2019-04-03T00:25:53.583Z,14.70
2019-04-03T00:28:25.148Z,19.80
2019-04-03T00:30:55.496Z,17.90
2019-04-03T00:33:23.930Z,23.70
2019-04-03T00:35:53.730Z,20.50
2019-04-03T00:38:24.330Z,18.27
2019-04-03T00:40:54.294Z,19.07
2019-04-03T00:43:24.742Z,24.40
2019-04-03T00:45:54.675Z,21.83
2019-04-03T00:48:25.051Z,22.47
2019-04-03T00:50:56.383Z,22.27
2019-04-03T00:53:23.678Z,25.57
2019-04-03T00:55:51.977Z,25.43
2019-04-03T00:58:36.851Z,28.80
2019-04-03T01:01:09.604Z,22.53
2019-04-03T01:03:38.084Z,25.27
2019-04-03T01:06:06.388Z,25.57
2019-04-03T01:08:34.713Z,26.10
2019-04-03T01:11:03.877Z,26.13
2019-04-03T01:13:32.357Z,31.27
2019-04-03T01:16:02.465Z,30.07
2019-04-03T01:18:31.039Z,32.53
2019-04-03T01:20:59.382Z,28.97
2019-04-03T01:23:27.881Z,40.73
2019-04-03T01:25:56.188Z,37.73
2019-04-03T01:28:24.529Z,29.97
2019-04-03T01:30:52.816Z,30.30
2019-04-03T01:33:21.218Z,36.57
2019-04-03T01:35:49.616Z,38.90
2019-04-03T01:38:19.478Z,29.57
2019-04-03T01:40:48.915Z,33.60
2019-04-03T01:43:18.098Z,34.63
2019-04-03T01:45:47.082Z,40.47
2019-04-03T01:48:15.386Z,35.43
2019-04-03T01:50:43.671Z,30.90
2019-04-03T01:53:12.526Z,26.70
2019-04-03T01:55:41.513Z,20.63
2019-04-03T01:58:09.804Z,23.47
2019-04-03T02:00:38.260Z,21.87
2019-04-03T02:03:06.775Z,32.60
2019-04-03T02:05:37.509Z,23.60
2019-04-03T02:08:05.978Z,27.07
2019-04-03T02:10:34.296Z,25.50
2019-04-03T02:13:02.963Z,24.60
2019-04-03T02:15:31.325Z,23.70
2019-04-03T02:17:59.703Z,25.97
2019-04-03T02:20:28.090Z,23.67
2019-04-03T02:22:59.615Z,25.50
2019-04-03T02:25:26.518Z,28.37
2019-04-03T02:27:54.827Z,25.50
2019-04-03T02:30:23.139Z,24.97
2019-04-03T02:32:55.222Z,27.23
2019-04-03T02:35:21.616Z,25.53
2019-04-03T02:37:50.781Z,27.60
2019-04-03T02:40:19.325Z,29.57
2019-04-03T02:42:47.610Z,24.77
2019-04-03T02:45:15.895Z,25.67
2019-04-03T02:47:44.404Z,28.73
2019-04-03T02:50:14.351Z,28.57
2019-04-03T02:52:42.937Z,25.77
2019-04-03T02:55:11.351Z,27.10
2019-04-03T02:57:39.903Z,27.70
2019-04-03T03:00:09.538Z,29.70
2019-04-03T03:02:38.043Z,26.83
2019-04-03T03:05:06.492Z,26.57
2019-04-03T03:07:36.338Z,31.37
2019-04-03T03:10:07.195Z,26.03
2019-04-03T03:12:35.632Z,28.60
2019-04-03T03:15:05.657Z,27.77
2019-04-03T03:17:33.940Z,27.07
2019-04-03T03:20:06.951Z,33.70
2019-04-03T03:22:35.906Z,26.67
2019-04-03T03:25:06.256Z,29.43
2019-04-03T03:27:35.727Z,28.20
2019-04-03T03:30:30.539Z,28.17
2019-04-03T03:32:37.347Z,28.23
2019-04-03T03:35:13.325Z,28.40
2019-04-03T03:37:37.476Z,32.70
2019-04-03T03:40:06.743Z,32.67
2019-04-03T03:42:35.220Z,31.47
2019-04-03T03:45:04.314Z,30.73
2019-04-03T03:47:35.044Z,35.63
2019-04-03T03:50:03.485Z,33.43
2019-04-03T03:52:36.109Z,30.67
2019-04-03T03:55:02.404Z,32.73
2019-04-03T03:57:31.206Z,36.30
2019-04-03T03:59:59.506Z,39.57
2019-04-03T04:02:27.847Z,31.73
2019-04-03T04:04:57.008Z,42.80
2019-04-03T04:07:25.989Z,40.30
2019-04-03T04:09:54.434Z,38.60
2019-04-03T04:12:23.410Z,29.20
2019-04-03T04:14:54.292Z,35.17
2019-04-03T04:17:21.864Z,40.13
2019-04-03T04:19:53.258Z,38.70
2019-04-03T04:22:22.959Z,34.47
2019-04-03T04:24:53.125Z,33.73
2019-04-03T04:27:21.434Z,32.63
2019-04-03T04:29:50.044Z,32.27
2019-04-03T04:32:18.504Z,40.43
2019-04-03T04:34:49.204Z,38.33
2019-04-03T04:37:16.873Z,39.17
2019-04-03T04:39:45.205Z,34.90
2019-04-03T04:42:13.489Z,38.03
2019-04-03T04:44:42.328Z,34.03
2019-04-03T04:47:10.595Z,33.87
2019-04-03T04:49:38.908Z,30.47
2019-04-03T04:52:07.222Z,37.77
2019-04-03T04:54:35.613Z,33.20
2019-04-03T04:57:04.206Z,42.70
2019-04-03T04:59:32.516Z,36.53
2019-04-03T05:02:00.866Z,41.33
2019-04-03T05:04:29.552Z,42.97
2019-04-03T05:07:00.092Z,33.60
2019-04-03T05:09:28.049Z,34.60
2019-04-03T05:11:56.355Z,34.67
2019-04-03T05:14:24.810Z,39.93
2019-04-03T05:16:54.120Z,37.77
2019-04-03T05:19:23.220Z,37.57
2019-04-03T05:21:52.864Z,28.77
2019-04-03T05:24:21.554Z,33.40
2019-04-03T05:26:49.836Z,30.80
2019-04-03T05:29:18.214Z,32.87
2019-04-03T05:31:46.570Z,34.43
2019-04-03T05:34:14.824Z,34.00
2019-04-03T05:36:43.229Z,26.17
2019-04-03T05:39:11.678Z,37.23
2019-04-03T05:41:40.028Z,36.83
2019-04-03T05:44:08.412Z,33.10
2019-04-03T05:46:37.665Z,29.60
2019-04-03T05:49:06.216Z,27.97
2019-04-03T05:51:34.857Z,31.67
2019-04-03T05:54:03.144Z,28.50
2019-04-03T05:56:31.731Z,27.27
2019-04-03T05:59:02.484Z,30.30
2019-04-03T06:01:30.187Z,27.47
2019-04-03T06:03:58.477Z,32.13
2019-04-03T06:06:26.754Z,25.40
2019-04-03T06:08:56.773Z,31.07
2019-04-03T06:11:25.372Z,27.97
2019-04-03T06:13:53.841Z,29.03
2019-04-03T06:16:24.758Z,27.50
2019-04-03T06:18:53.340Z,29.60
2019-04-03T06:21:21.699Z,27.33
2019-04-03T06:23:52.086Z,24.33
2019-04-03T06:26:20.854Z,30.40
2019-04-03T06:28:49.221Z,28.10
2019-04-03T06:31:17.788Z,25.23
2019-04-03T06:33:46.696Z,22.17
2019-04-03T06:36:16.890Z,29.20
2019-04-03T06:38:45.111Z,31.53
2019-04-03T06:41:14.331Z,24.53
2019-04-03T06:43:42.641Z,24.67
2019-04-03T06:46:10.970Z,22.17
2019-04-03T06:48:39.255Z,22.63
2019-04-03T06:51:07.572Z,23.23
2019-04-03T06:53:35.970Z,34.80
2019-04-03T06:56:04.441Z,19.83
2019-04-03T06:58:38.129Z,25.50
2019-04-03T07:01:03.044Z,19.33
2019-04-03T07:03:32.274Z,20.67
2019-04-03T07:06:01.452Z,23.20
2019-04-03T07:08:34.901Z,19.87
2019-04-03T07:10:59.931Z,24.57
2019-04-03T07:13:29.716Z,20.77
2019-04-03T07:15:58.370Z,26.40
2019-04-03T07:18:26.678Z,27.57
2019-04-03T07:20:55.299Z,21.27
2019-04-03T07:23:23.800Z,29.37
2019-04-03T07:25:52.247Z,22.17
2019-04-03T07:28:20.883Z,20.00
2019-04-03T07:30:52.941Z,23.10
2019-04-03T07:33:19.750Z,20.80
2019-04-03T07:35:48.035Z,23.03
2019-04-03T07:38:16.396Z,22.43
2019-04-03T07:40:45.429Z,23.40
2019-04-03T07:43:13.885Z,23.43
2019-04-03T07:45:43.877Z,23.07
2019-04-03T07:48:12.490Z,23.63
2019-04-03T07:50:41.989Z,25.87
2019-04-03T07:53:10.567Z,24.93
2019-04-03T07:55:38.884Z,20.70
2019-04-03T07:58:07.309Z,23.60
2019-04-03T08:00:36.295Z,20.77
2019-04-03T08:03:06.042Z,20.43
2019-04-03T08:05:34.484Z,21.70
2019-04-03T08:08:03.328Z,23.40
2019-04-03T08:10:31.830Z,21.67
2019-04-03T08:13:00.286Z,22.53
2019-04-03T08:15:28.568Z,24.97
2019-04-03T08:17:57.851Z,22.43
2019-04-03T08:20:26.471Z,22.43
2019-04-03T08:22:54.925Z,24.00
2019-04-03T08:25:23.201Z,24.70
2019-04-03T08:27:54.534Z,25.97
2019-04-03T08:30:21.620Z,24.00
2019-04-03T08:32:49.941Z,23.97
2019-04-03T08:35:23.074Z,22.63
2019-04-03T08:37:49.291Z,21.07
2019-04-03T08:40:19.639Z,25.10
2019-04-03T08:42:47.625Z,21.50
2019-04-03T08:45:16.317Z,23.17
2019-04-03T08:47:46.293Z,22.50
2019-04-03T08:50:15.544Z,22.87
2019-04-03T08:52:44.571Z,21.97
2019-04-03T08:55:14.465Z,23.10
2019-04-03T08:57:45.345Z,26.67
2019-04-03T09:00:12.906Z,22.83
2019-04-03T09:02:43.533Z,23.80
2019-04-03T09:05:13.715Z,22.57
2019-04-03T09:07:41.766Z,23.23
2019-04-03T09:10:10.254Z,20.70
2019-04-03T09:12:38.925Z,25.43
2019-04-03T09:15:07.614Z,27.77
2019-04-03T09:17:35.901Z,19.90
2019-04-03T09:20:04.794Z,20.00
2019-04-03T09:22:33.187Z,22.67
2019-04-03T09:25:02.203Z,23.40
2019-04-03T09:27:30.599Z,24.03
2019-04-03T09:29:58.978Z,29.50
2019-04-03T09:32:27.270Z,24.13
2019-04-03T09:34:55.911Z,19.57
2019-04-03T09:37:24.398Z,18.80
2019-04-03T09:39:52.741Z,23.17
2019-04-03T09:42:21.864Z,23.03
2019-04-03T09:44:50.145Z,19.07
2019-04-03T09:47:19.564Z,20.27
2019-04-03T09:49:48.280Z,19.90
2019-04-03T09:52:16.563Z,16.60
2019-04-03T09:54:45.278Z,15.83
2019-04-03T09:57:13.566Z,18.00
2019-04-03T09:59:41.887Z,17.63
2019-04-03T10:02:10.370Z,14.83
2019-04-03T10:04:39.911Z,12.20
2019-04-03T10:07:08.430Z,12.60
2019-04-03T10:09:38.698Z,14.00
2019-04-03T10:12:07.058Z,14.23
2019-04-03T10:14:35.442Z,11.30
2019-04-03T10:17:05.939Z,9.37
2019-04-03T10:19:33.740Z,9.43
2019-04-03T10:22:02.146Z,11.10
2019-04-03T10:24:31.053Z,12.00
2019-04-03T10:27:00.328Z,7.60
2019-04-03T10:29:28.727Z,10.60
2019-04-03T10:31:58.189Z,12.73
2019-04-03T10:34:27.282Z,7.60
2019-04-03T10:36:56.018Z,7.47
2019-04-03T10:39:24.488Z,14.20
2019-04-03T10:41:52.770Z,19.20
2019-04-03T10:44:21.092Z,7.97
2019-04-03T10:46:50.259Z,7.33
2019-04-03T10:49:19.099Z,12.20
2019-04-03T10:51:47.397Z,7.50
2019-04-03T10:54:15.682Z,11.83
2019-04-03T10:56:44.133Z,7.90
2019-04-03T10:59:13.897Z,9.20
2019-04-03T11:01:42.570Z,9.97
2019-04-03T11:04:11.086Z,7.80
2019-04-03T11:06:39.388Z,10.43
2019-04-03T11:09:08.811Z,11.63
2019-04-03T11:11:37.684Z,7.43
2019-04-03T11:14:07.493Z,9.47
2019-04-03T11:16:38.637Z,15.30
2019-04-03T11:19:07.453Z,7.23
2019-04-03T11:21:35.842Z,6.53
2019-04-03T11:24:06.213Z,7.60
2019-04-03T11:26:35.003Z,6.27
2019-04-03T11:29:03.951Z,7.63
2019-04-03T11:31:35.820Z,6.30
2019-04-03T11:34:02.926Z,9.47
2019-04-03T11:36:31.283Z,10.57
2019-04-03T11:39:11.634Z,8.33
2019-04-03T11:41:29.656Z,7.10
2019-04-03T11:43:58.125Z,7.63
2019-04-03T11:46:26.461Z,10.43
2019-04-03T11:48:54.871Z,8.43
2019-04-03T11:51:23.316Z,11.70
2019-04-03T11:53:51.709Z,7.43
2019-04-03T11:56:20.109Z,6.73
2019-04-03T11:58:51.335Z,10.20
2019-04-03T12:01:19.073Z,13.13
2019-04-03T12:03:50.310Z,9.70
2019-04-03T12:06:19.538Z,12.83
2019-04-03T12:08:48.128Z,9.30
2019-04-03T12:11:16.421Z,8.30
2019-04-03T12:13:45.971Z,10.30
2019-04-03T12:16:14.971Z,10.53
2019-04-03T12:18:43.813Z,9.13
2019-04-03T12:21:14.123Z,8.77
2019-04-03T12:23:42.225Z,6.97
2019-04-03T12:26:11.391Z,6.80
2019-04-03T12:28:40.608Z,9.00
2019-04-03T12:31:08.853Z,7.20
2019-04-03T12:33:37.175Z,7.37
2019-04-03T12:36:06.878Z,9.00
2019-04-03T12:38:35.779Z,8.57
2019-04-03T12:41:04.977Z,9.93
2019-04-03T12:43:33.927Z,9.63
2019-04-03T12:46:03.088Z,10.27
2019-04-03T12:48:32.184Z,7.00
2019-04-03T12:51:00.560Z,6.90
2019-04-03T12:53:29.108Z,7.90
2019-04-03T12:55:58.269Z,10.27
2019-04-03T12:58:26.881Z,8.37
2019-04-03T13:00:55.149Z,8.27
2019-04-03T13:03:24.594Z,11.30
2019-04-03T13:05:53.794Z,8.90
2019-04-03T13:08:22.276Z,9.60
2019-04-03T13:10:50.659Z,9.73
2019-04-03T13:13:19.242Z,11.30
2019-04-03T13:15:48.226Z,10.10
2019-04-03T13:18:16.740Z,8.47
2019-04-03T13:20:45.017Z,10.20
2019-04-03T13:23:15.149Z,7.37
2019-04-03T13:25:44.246Z,8.90
2019-04-03T13:28:12.749Z,8.27
2019-04-03T13:30:43.274Z,7.20
2019-04-03T13:33:11.279Z,8.87
2019-04-03T13:35:39.838Z,11.00
2019-04-03T13:38:08.496Z,10.93
2019-04-03T13:40:38.416Z,12.53
2019-04-03T13:43:07.101Z,13.70
2019-04-03T13:45:35.720Z,9.57
2019-04-03T13:48:04.483Z,13.23
2019-04-03T13:50:32.913Z,19.13
2019-04-03T13:53:02.592Z,12.83
2019-04-03T13:55:33.776Z,11.27
2019-04-03T13:58:01.832Z,10.73
2019-04-03T14:00:32.109Z,17.50
2019-04-03T14:03:00.460Z,14.37
2019-04-03T14:05:32.260Z,13.60
2019-04-03T14:07:58.900Z,11.60
2019-04-03T14:10:27.874Z,13.10
2019-04-03T14:12:56.585Z,14.13
2019-04-03T14:15:25.286Z,15.57
2019-04-03T14:17:57.672Z,11.60
2019-04-03T14:20:25.265Z,15.20
2019-04-03T14:22:53.538Z,14.07
2019-04-03T14:25:23.763Z,14.20
2019-04-03T14:27:52.199Z,11.20
2019-04-03T14:30:21.558Z,12.87
2019-04-03T14:32:51.878Z,14.17
2019-04-03T14:35:50.426Z,11.27
2019-04-03T14:37:49.981Z,13.83
2019-04-03T14:40:18.282Z,10.87
2019-04-03T14:42:46.589Z,15.00
2019-04-03T14:45:15.366Z,11.03
2019-04-03T14:47:44.277Z,11.27
2019-04-03T14:50:12.566Z,11.43
2019-04-03T14:52:40.992Z,17.90
2019-04-03T14:55:18.201Z,10.33
2019-04-03T14:57:39.503Z,9.63
2019-04-03T15:00:25.002Z,12.60
2019-04-03T15:02:41.056Z,12.97
2019-04-03T15:05:09.779Z,11.40
2019-04-03T15:07:38.102Z,13.33
2019-04-03T15:10:07.405Z,10.10
2019-04-03T15:12:38.626Z,13.73
2019-04-03T15:15:06.126Z,10.50
2019-04-03T15:17:37.252Z,8.93
2019-04-03T15:20:07.117Z,13.50
2019-04-03T15:22:35.731Z,12.13
2019-04-03T15:25:05.164Z,11.97
2019-04-03T15:27:33.666Z,10.83
2019-04-03T15:30:02.175Z,10.70
2019-04-03T15:32:31.095Z,10.03
2019-04-03T15:35:00.979Z,11.13
2019-04-03T15:37:29.726Z,11.47
2019-04-03T15:39:59.137Z,11.33
2019-04-03T15:42:27.910Z,9.07
2019-04-03T15:44:57.951Z,11.20
2019-04-03T15:47:35.039Z,13.03
2019-04-03T15:49:58.829Z,11.47
2019-04-03T15:52:32.101Z,10.50
2019-04-03T15:55:03.618Z,10.87
2019-04-03T15:57:30.936Z,11.33
2019-04-03T16:00:01.835Z,12.33
2019-04-03T16:02:30.009Z,12.87
2019-04-03T16:04:59.863Z,12.67
2019-04-03T16:07:28.636Z,14.33
2019-04-03T16:09:57.146Z,10.30
2019-04-03T16:12:25.766Z,16.77
2019-04-03T16:14:54.194Z,9.90
2019-04-03T16:17:22.627Z,8.90
2019-04-03T16:19:52.305Z,10.67
2019-04-03T16:22:21.539Z,16.10
2019-04-03T16:24:50.117Z,11.57
2019-04-03T16:27:18.519Z,10.50
2019-04-03T16:29:47.008Z,10.20
2019-04-03T16:32:15.413Z,14.17
2019-04-03T16:34:43.879Z,9.50
2019-04-03T16:37:12.225Z,11.60
2019-04-03T16:39:41.378Z,10.40
2019-04-03T16:42:09.734Z,11.77
2019-04-03T16:44:38.505Z,12.00
2019-04-03T16:47:07.093Z,17.37
2019-04-03T16:49:35.802Z,12.50
2019-04-03T16:52:05.575Z,8.63
2019-04-03T16:54:34.479Z,13.17
2019-04-03T16:57:03.677Z,13.17
2019-04-03T16:59:35.432Z,19.03
2019-04-03T17:02:02.704Z,14.47
2019-04-03T17:04:31.155Z,11.47
2019-04-03T17:06:59.481Z,15.70
2019-04-03T17:09:27.774Z,28.03
2019-04-03T17:11:56.859Z,24.90
2019-04-03T17:14:25.732Z,25.67
2019-04-03T17:16:54.202Z,28.20
2019-04-03T17:19:22.584Z,18.00
2019-04-03T17:21:51.464Z,26.87
2019-04-03T17:24:19.868Z,21.80
2019-04-03T17:26:53.920Z,17.77
2019-04-03T17:29:18.503Z,15.60
2019-04-03T17:31:47.015Z,13.13
2019-04-03T17:34:15.845Z,16.63
2019-04-03T17:36:44.337Z,15.67
2019-04-03T17:39:12.594Z,18.67
2019-04-03T17:41:40.881Z,17.67
2019-04-03T17:44:09.183Z,15.93
2019-04-03T17:46:39.872Z,16.10
2019-04-03T17:49:07.668Z,15.90
2019-04-03T17:51:36.216Z,14.77
2019-04-03T17:54:07.520Z,15.20
2019-04-03T17:56:35.672Z,18.03
2019-04-03T17:59:04.073Z,17.00
2019-04-03T18:01:32.435Z,17.33
2019-04-03T18:04:00.714Z,15.30
2019-04-03T18:06:28.996Z,26.00
2019-04-03T18:08:58.570Z,18.47
2019-04-03T18:11:26.938Z,16.40
2019-04-03T18:13:55.631Z,18.53
2019-04-03T18:16:24.208Z,12.57
2019-04-03T18:18:52.487Z,16.03
2019-04-03T18:21:20.837Z,17.57
2019-04-03T18:23:49.303Z,15.87
2019-04-03T18:26:19.357Z,13.97
2019-04-03T18:28:47.708Z,16.20
2019-04-03T18:31:16.183Z,14.60
2019-04-03T18:33:44.551Z,19.07
2019-04-03T18:36:12.831Z,16.50
2019-04-03T18:38:41.215Z,18.13
2019-04-03T18:41:09.566Z,11.57
2019-04-03T18:43:37.854Z,16.13
2019-04-03T18:46:06.164Z,13.03
2019-04-03T18:48:34.470Z,15.70
2019-04-03T18:51:05.666Z,16.97
2019-04-03T18:53:32.956Z,16.27
2019-04-03T18:56:01.240Z,13.20
2019-04-03T18:58:29.655Z,13.80
2019-04-03T19:00:57.990Z,13.93
2019-04-03T19:03:26.413Z,14.77
2019-04-03T19:05:55.074Z,15.07
2019-04-03T19:08:23.355Z,13.63
2019-04-03T19:11:01.579Z,13.33
2019-04-03T19:13:21.721Z,13.73
2019-04-03T19:15:50.105Z,16.10
2019-04-03T19:18:19.951Z,14.40
2019-04-03T19:20:48.414Z,15.63
2019-04-03T19:23:16.692Z,13.20
2019-04-03T19:25:45.918Z,22.77
2019-04-03T19:28:14.448Z,20.77
2019-04-03T19:30:42.856Z,12.93
2019-04-03T19:33:12.053Z,15.80
2019-04-03T19:35:41.438Z,14.27
2019-04-03T19:38:09.859Z,15.47
2019-04-03T19:40:40.270Z,17.13
2019-04-03T19:43:08.219Z,19.97
2019-04-03T19:45:36.661Z,17.20
2019-04-03T19:48:04.992Z,20.10
2019-04-03T19:50:33.295Z,19.00
2019-04-03T19:53:01.604Z,18.10
2019-04-03T19:55:29.931Z,16.43
2019-04-03T19:57:58.386Z,24.30
2019-04-03T20:00:26.894Z,21.00
2019-04-03T20:02:55.208Z,17.47
2019-04-03T20:05:23.526Z,21.13
2019-04-03T20:07:51.851Z,18.70
2019-04-03T20:10:20.165Z,22.13
2019-04-03T20:12:48.489Z,17.00
2019-04-03T20:15:16.847Z,15.87
2019-04-03T20:17:45.136Z,18.30
2019-04-03T20:20:13.728Z,16.40
2019-04-03T20:22:42.647Z,19.27
2019-04-03T20:25:15.208Z,18.97
2019-04-03T20:27:42.884Z,19.60
2019-04-03T20:30:11.247Z,17.53
2019-04-03T20:32:40.753Z,18.47
2019-04-03T20:35:09.294Z,19.90
2019-04-03T20:37:37.633Z,17.80
2019-04-03T20:40:06.458Z,18.67
2019-04-03T20:42:34.744Z,16.63
2019-04-03T20:45:03.182Z,22.43
2019-04-03T20:47:31.474Z,27.23
2019-04-03T20:49:59.802Z,20.67
2019-04-03T20:52:28.227Z,33.27
2019-04-03T20:54:56.529Z,20.97
2019-04-03T20:57:24.804Z,19.80
2019-04-03T21:00:02.033Z,20.67
2019-04-03T21:02:23.306Z,19.07
2019-04-03T21:04:51.715Z,22.10
2019-04-03T21:07:20.099Z,22.00
2019-04-03T21:09:48.425Z,18.90
2019-04-03T21:12:16.716Z,18.97
2019-04-03T21:14:47.462Z,20.83
2019-04-03T21:17:15.066Z,25.70
2019-04-03T21:19:43.736Z,25.13
2019-04-03T21:22:12.829Z,24.10
2019-04-03T21:24:41.118Z,20.03
2019-04-03T21:27:09.494Z,22.47
2019-04-03T21:29:37.823Z,25.33
2019-04-03T21:32:06.109Z,25.13
2019-04-03T21:34:34.729Z,25.83
2019-04-03T21:37:03.055Z,21.50
2019-04-03T21:39:33.618Z,23.97
2019-04-03T21:42:01.357Z,30.10
2019-04-03T21:44:29.958Z,20.33
2019-04-03T21:47:00.009Z,21.40
2019-04-03T21:49:28.521Z,21.53
2019-04-03T21:51:57.172Z,20.67
2019-04-03T21:54:26.907Z,24.73
2019-04-03T21:56:55.633Z,23.83
2019-04-03T21:59:24.484Z,31.93
2019-04-03T22:01:52.834Z,29.20
2019-04-03T22:04:23.439Z,24.60
2019-04-03T22:06:54.139Z,28.47
2019-04-03T22:09:24.321Z,29.00
2019-04-03T22:11:54.900Z,27.23
2019-04-03T22:14:23.168Z,26.50
2019-04-03T22:16:52.058Z,25.20
2019-04-03T22:19:20.350Z,26.57
2019-04-03T22:21:48.693Z,26.63
2019-04-03T22:24:16.975Z,29.23
2019-04-03T22:26:45.542Z,26.53
2019-04-03T22:29:13.852Z,30.07
2019-04-03T22:31:42.136Z,28.70
2019-04-03T22:34:10.514Z,30.70
2019-04-03T22:36:38.782Z,31.47
2019-04-03T22:39:08.127Z,29.83
2019-04-03T22:41:37.073Z,27.07
2019-04-03T22:44:05.393Z,25.77
2019-04-03T22:46:33.747Z,29.87
2019-04-03T22:49:02.064Z,29.23
2019-04-03T22:51:30.382Z,29.33
2019-04-03T22:53:58.673Z,31.50
2019-04-03T22:56:26.988Z,38.03
2019-04-03T22:58:58.744Z,28.43
2019-04-03T23:01:27.929Z,29.63
2019-04-03T23:03:57.041Z,31.60
2019-04-03T23:06:25.351Z,32.10
2019-04-03T23:08:54.296Z,32.27
2019-04-03T23:11:22.742Z,34.03
2019-04-03T23:13:51.045Z,38.37
2019-04-03T23:16:19.681Z,33.70
2019-04-03T23:18:47.969Z,32.50
2019-04-03T23:21:16.395Z,31.13
2019-04-03T23:23:44.712Z,31.93
2019-04-03T23:26:13.001Z,34.57
2019-04-03T23:28:41.348Z,35.93
2019-04-03T23:31:11.154Z,35.90
2019-04-03T23:33:39.651Z,30.87
2019-04-03T23:36:07.936Z,37.73
2019-04-03T23:38:36.246Z,37.00
2019-04-03T23:41:06.108Z,38.53
2019-04-03T23:43:35.071Z,36.67
2019-04-03T23:46:03.381Z,34.37
2019-04-03T23:48:31.805Z,36.53
2019-04-03T23:51:00.114Z,33.77
2019-04-03T23:53:28.495Z,37.43
2019-04-03T23:55:58.480Z,35.80
2019-04-03T23:58:26.787Z,41.77
